sensor_id;sensor_type;location;lat;lon;timestamp;temperature;humidity
48836;DHT22;62581;47.342;7.908;2023-08-21T00:01:24;24.80;99.90
48836;DHT22;62581;47.342;7.908;2023-08-21T00:03:51;24.90;99.90
48836;DHT22;62581;47.342;7.908;2023-08-21T00:06:18;24.80;99.90
48836;DHT22;62581;47.342;7.908;2023-08-21T00:08:44;24.80;99.90
48836;DHT22;62581;47.342;7.908;2023-08-21T00:11:11;24.70;99.90
48836;DHT22;62581;47.342;7.908;2023-08-21T00:13:38;24.80;99.90
48836;DHT22;62581;47.342;7.908;2023-08-21T00:16:05;24.80;99.90
48836;DHT22;62581;47.342;7.908;2023-08-21T00:18:33;24.80;99.90
48836;DHT22;62581;47.342;7.908;2023-08-21T00:21:00;24.70;99.90
48836;DHT22;62581;47.342;7.908;2023-08-21T00:23:26;24.70;99.90
48836;DHT22;62581;47.342;7.908;2023-08-21T00:25:53;24.60;99.90
48836;DHT22;62581;47.342;7.908;2023-08-21T00:28:20;24.50;99.90
48836;DHT22;62581;47.342;7.908;2023-08-21T00:30:47;24.50;99.90
48836;DHT22;62581;47.342;7.908;2023-08-21T00:33:13;24.50;99.90
48836;DHT22;62581;47.342;7.908;2023-08-21T00:35:42;24.50;99.90
48836;DHT22;62581;47.342;7.908;2023-08-21T00:38:09;24.50;99.90
48836;DHT22;62581;47.342;7.908;2023-08-21T00:40:36;24.40;99.90
48836;DHT22;62581;47.342;7.908;2023-08-21T00:43:03;24.40;99.90
48836;DHT22;62581;47.342;7.908;2023-08-21T00:45:30;24.30;99.90
48836;DHT22;62581;47.342;7.908;2023-08-21T00:47:56;24.30;99.90
48836;DHT22;62581;47.342;7.908;2023-08-21T00:50:23;24.20;99.90
48836;DHT22;62581;47.342;7.908;2023-08-21T00:52:52;24.20;99.90
48836;DHT22;62581;47.342;7.908;2023-08-21T00:55:19;24.30;99.90
48836;DHT22;62581;47.342;7.908;2023-08-21T00:57:46;24.10;99.90
48836;DHT22;62581;47.342;7.908;2023-08-21T01:00:13;24.20;99.90
48836;DHT22;62581;47.342;7.908;2023-08-21T01:02:40;24.20;99.90
48836;DHT22;62581;47.342;7.908;2023-08-21T01:05:07;24.10;99.90
48836;DHT22;62581;47.342;7.908;2023-08-21T01:07:36;24.00;99.90
48836;DHT22;62581;47.342;7.908;2023-08-21T01:10:07;24.00;99.90
48836;DHT22;62581;47.342;7.908;2023-08-21T01:12:37;23.90;99.90
48836;DHT22;62581;47.342;7.908;2023-08-21T01:15:09;23.80;99.90
48836;DHT22;62581;47.342;7.908;2023-08-21T01:17:36;23.80;99.90
48836;DHT22;62581;47.342;7.908;2023-08-21T01:20:03;23.80;99.90
48836;DHT22;62581;47.342;7.908;2023-08-21T01:22:35;23.90;99.90
48836;DHT22;62581;47.342;7.908;2023-08-21T01:25:04;23.80;99.90
48836;DHT22;62581;47.342;7.908;2023-08-21T01:27:31;23.80;99.90
48836;DHT22;62581;47.342;7.908;2023-08-21T01:29:58;23.70;99.90
48836;DHT22;62581;47.342;7.908;2023-08-21T01:32:27;23.60;99.90
48836;DHT22;62581;47.342;7.908;2023-08-21T01:34:56;23.60;99.90
48836;DHT22;62581;47.342;7.908;2023-08-21T01:37:24;23.60;99.90
48836;DHT22;62581;47.342;7.908;2023-08-21T01:39:51;23.60;99.90
48836;DHT22;62581;47.342;7.908;2023-08-21T01:42:19;23.60;99.90
48836;DHT22;62581;47.342;7.908;2023-08-21T01:44:46;23.60;99.90
48836;DHT22;62581;47.342;7.908;2023-08-21T01:47:12;23.60;99.90
48836;DHT22;62581;47.342;7.908;2023-08-21T01:49:39;23.60;99.90
48836;DHT22;62581;47.342;7.908;2023-08-21T01:52:06;23.60;99.90
48836;DHT22;62581;47.342;7.908;2023-08-21T01:54:33;23.60;99.90
48836;DHT22;62581;47.342;7.908;2023-08-21T01:56:59;23.60;99.90
48836;DHT22;62581;47.342;7.908;2023-08-21T01:59:28;23.60;99.90
48836;DHT22;62581;47.342;7.908;2023-08-21T02:01:54;23.60;99.90
48836;DHT22;62581;47.342;7.908;2023-08-21T02:04:21;23.50;99.90
48836;DHT22;62581;47.342;7.908;2023-08-21T02:06:48;23.50;99.90
48836;DHT22;62581;47.342;7.908;2023-08-21T02:09:15;23.50;99.90
48836;DHT22;62581;47.342;7.908;2023-08-21T02:11:41;23.50;99.90
48836;DHT22;62581;47.342;7.908;2023-08-21T02:14:08;23.50;99.90
48836;DHT22;62581;47.342;7.908;2023-08-21T02:16:36;23.50;99.90
48836;DHT22;62581;47.342;7.908;2023-08-21T02:19:03;23.50;99.90
48836;DHT22;62581;47.342;7.908;2023-08-21T02:21:30;23.40;99.90
48836;DHT22;62581;47.342;7.908;2023-08-21T02:23:57;23.40;99.90
48836;DHT22;62581;47.342;7.908;2023-08-21T02:26:23;23.40;99.90
48836;DHT22;62581;47.342;7.908;2023-08-21T02:28:50;23.30;99.90
48836;DHT22;62581;47.342;7.908;2023-08-21T02:31:17;23.30;99.90
48836;DHT22;62581;47.342;7.908;2023-08-21T02:33:46;23.20;99.90
48836;DHT22;62581;47.342;7.908;2023-08-21T02:36:13;23.20;99.90
48836;DHT22;62581;47.342;7.908;2023-08-21T02:38:39;23.20;99.90
48836;DHT22;62581;47.342;7.908;2023-08-21T02:41:06;23.20;99.90
48836;DHT22;62581;47.342;7.908;2023-08-21T02:43:33;23.20;99.90
48836;DHT22;62581;47.342;7.908;2023-08-21T02:46:00;23.10;99.90
48836;DHT22;62581;47.342;7.908;2023-08-21T02:48:26;23.10;99.90
48836;DHT22;62581;47.342;7.908;2023-08-21T02:50:55;23.10;99.90
48836;DHT22;62581;47.342;7.908;2023-08-21T02:53:22;23.10;99.90
48836;DHT22;62581;47.342;7.908;2023-08-21T02:55:48;23.10;99.90
48836;DHT22;62581;47.342;7.908;2023-08-21T02:58:15;23.00;99.90
48836;DHT22;62581;47.342;7.908;2023-08-21T03:00:42;23.00;99.90
48836;DHT22;62581;47.342;7.908;2023-08-21T03:03:09;22.90;99.90
48836;DHT22;62581;47.342;7.908;2023-08-21T03:05:36;22.90;99.90
48836;DHT22;62581;47.342;7.908;2023-08-21T03:08:04;22.90;99.90
48836;DHT22;62581;47.342;7.908;2023-08-21T03:10:31;23.00;99.90
48836;DHT22;62581;47.342;7.908;2023-08-21T03:12:59;22.90;99.90
48836;DHT22;62581;47.342;7.908;2023-08-21T03:15:26;22.90;99.90
48836;DHT22;62581;47.342;7.908;2023-08-21T03:17:52;22.90;99.90
48836;DHT22;62581;47.342;7.908;2023-08-21T03:20:19;22.90;99.90
48836;DHT22;62581;47.342;7.908;2023-08-21T03:22:46;22.80;99.90
48836;DHT22;62581;47.342;7.908;2023-08-21T03:25:14;22.80;99.90
48836;DHT22;62581;47.342;7.908;2023-08-21T03:27:41;22.80;99.90
48836;DHT22;62581;47.342;7.908;2023-08-21T03:30:10;22.80;99.90
48836;DHT22;62581;47.342;7.908;2023-08-21T03:32:40;22.60;99.90
48836;DHT22;62581;47.342;7.908;2023-08-21T03:35:07;22.50;99.90
48836;DHT22;62581;47.342;7.908;2023-08-21T03:37:33;22.50;99.90
48836;DHT22;62581;47.342;7.908;2023-08-21T03:40:02;22.50;99.90
48836;DHT22;62581;47.342;7.908;2023-08-21T03:42:30;22.40;99.90
48836;DHT22;62581;47.342;7.908;2023-08-21T03:44:57;22.40;99.90
48836;DHT22;62581;47.342;7.908;2023-08-21T03:47:23;22.40;99.90
48836;DHT22;62581;47.342;7.908;2023-08-21T03:49:50;22.40;99.90
48836;DHT22;62581;47.342;7.908;2023-08-21T03:52:17;22.50;99.90
48836;DHT22;62581;47.342;7.908;2023-08-21T03:54:44;22.40;99.90
48836;DHT22;62581;47.342;7.908;2023-08-21T03:57:10;22.50;99.90
48836;DHT22;62581;47.342;7.908;2023-08-21T03:59:39;22.40;99.90
48836;DHT22;62581;47.342;7.908;2023-08-21T04:02:06;22.40;99.90
48836;DHT22;62581;47.342;7.908;2023-08-21T04:04:32;22.50;99.90
48836;DHT22;62581;47.342;7.908;2023-08-21T04:06:59;22.40;99.90
48836;DHT22;62581;47.342;7.908;2023-08-21T04:09:26;22.40;99.90
48836;DHT22;62581;47.342;7.908;2023-08-21T04:11:53;22.40;99.90
48836;DHT22;62581;47.342;7.908;2023-08-21T04:14:19;22.30;99.90
48836;DHT22;62581;47.342;7.908;2023-08-21T04:16:47;22.30;99.90
48836;DHT22;62581;47.342;7.908;2023-08-21T04:19:14;22.30;99.90
48836;DHT22;62581;47.342;7.908;2023-08-21T04:21:41;22.30;99.90
48836;DHT22;62581;47.342;7.908;2023-08-21T04:24:10;22.30;99.90
48836;DHT22;62581;47.342;7.908;2023-08-21T04:26:37;22.30;99.90
48836;DHT22;62581;47.342;7.908;2023-08-21T04:29:04;22.20;99.90
48836;DHT22;62581;47.342;7.908;2023-08-21T04:31:30;22.20;99.90
48836;DHT22;62581;47.342;7.908;2023-08-21T04:33:58;22.30;99.90
48836;DHT22;62581;47.342;7.908;2023-08-21T04:36:25;22.20;99.90
48836;DHT22;62581;47.342;7.908;2023-08-21T04:38:52;22.20;99.90
48836;DHT22;62581;47.342;7.908;2023-08-21T04:41:18;22.20;99.90
48836;DHT22;62581;47.342;7.908;2023-08-21T04:43:45;22.20;99.90
48836;DHT22;62581;47.342;7.908;2023-08-21T04:46:12;22.30;99.90
48836;DHT22;62581;47.342;7.908;2023-08-21T04:48:39;22.30;99.90
48836;DHT22;62581;47.342;7.908;2023-08-21T04:51:07;22.30;99.90
48836;DHT22;62581;47.342;7.908;2023-08-21T04:53:34;22.30;99.90
48836;DHT22;62581;47.342;7.908;2023-08-21T04:56:01;22.30;99.90
48836;DHT22;62581;47.342;7.908;2023-08-21T04:58:28;22.30;99.90
48836;DHT22;62581;47.342;7.908;2023-08-21T05:00:55;22.40;99.90
48836;DHT22;62581;47.342;7.908;2023-08-21T05:03:22;22.40;99.90
48836;DHT22;62581;47.342;7.908;2023-08-21T05:05:52;22.40;99.90
48836;DHT22;62581;47.342;7.908;2023-08-21T05:08:21;22.40;99.90
48836;DHT22;62581;47.342;7.908;2023-08-21T05:10:48;22.40;99.90
48836;DHT22;62581;47.342;7.908;2023-08-21T05:13:14;22.40;99.90
48836;DHT22;62581;47.342;7.908;2023-08-21T05:15:43;22.60;99.90
48836;DHT22;62581;47.342;7.908;2023-08-21T05:18:09;22.50;99.90
48836;DHT22;62581;47.342;7.908;2023-08-21T05:20:36;22.50;99.90
48836;DHT22;62581;47.342;7.908;2023-08-21T05:23:03;22.50;99.90
48836;DHT22;62581;47.342;7.908;2023-08-21T05:25:32;22.60;99.90
48836;DHT22;62581;47.342;7.908;2023-08-21T05:27:59;22.50;99.90
48836;DHT22;62581;47.342;7.908;2023-08-21T05:30:26;22.50;99.90
48836;DHT22;62581;47.342;7.908;2023-08-21T05:32:53;22.50;99.90
48836;DHT22;62581;47.342;7.908;2023-08-21T05:35:19;22.50;99.90
48836;DHT22;62581;47.342;7.908;2023-08-21T05:37:46;22.40;99.90
48836;DHT22;62581;47.342;7.908;2023-08-21T05:40:13;22.40;99.90
48836;DHT22;62581;47.342;7.908;2023-08-21T05:42:41;22.40;99.90
48836;DHT22;62581;47.342;7.908;2023-08-21T05:45:08;22.40;99.90
48836;DHT22;62581;47.342;7.908;2023-08-21T05:47:35;22.40;99.90
48836;DHT22;62581;47.342;7.908;2023-08-21T05:50:02;22.40;99.90
48836;DHT22;62581;47.342;7.908;2023-08-21T05:52:29;22.40;99.90
48836;DHT22;62581;47.342;7.908;2023-08-21T05:54:56;22.40;99.90
48836;DHT22;62581;47.342;7.908;2023-08-21T05:57:24;22.50;99.90
48836;DHT22;62581;47.342;7.908;2023-08-21T05:59:52;22.40;99.90
48836;DHT22;62581;47.342;7.908;2023-08-21T06:02:19;22.50;99.90
48836;DHT22;62581;47.342;7.908;2023-08-21T06:04:45;22.60;99.90
48836;DHT22;62581;47.342;7.908;2023-08-21T06:07:12;22.70;99.90
48836;DHT22;62581;47.342;7.908;2023-08-21T06:09:39;22.70;99.90
48836;DHT22;62581;47.342;7.908;2023-08-21T06:12:06;22.80;99.90
48836;DHT22;62581;47.342;7.908;2023-08-21T06:14:33;22.90;99.90
48836;DHT22;62581;47.342;7.908;2023-08-21T06:17:02;23.00;99.90
48836;DHT22;62581;47.342;7.908;2023-08-21T06:19:30;23.00;99.90
48836;DHT22;62581;47.342;7.908;2023-08-21T06:21:57;23.10;99.90
48836;DHT22;62581;47.342;7.908;2023-08-21T06:24:24;23.20;99.90
48836;DHT22;62581;47.342;7.908;2023-08-21T06:26:51;23.20;99.90
48836;DHT22;62581;47.342;7.908;2023-08-21T06:29:18;23.20;99.90
48836;DHT22;62581;47.342;7.908;2023-08-21T06:31:46;23.20;99.90
48836;DHT22;62581;47.342;7.908;2023-08-21T06:34:14;23.20;99.90
48836;DHT22;62581;47.342;7.908;2023-08-21T06:36:41;23.30;99.90
48836;DHT22;62581;47.342;7.908;2023-08-21T06:39:07;23.30;99.90
48836;DHT22;62581;47.342;7.908;2023-08-21T06:41:34;23.50;99.90
48836;DHT22;62581;47.342;7.908;2023-08-21T06:44:01;23.50;99.90
48836;DHT22;62581;47.342;7.908;2023-08-21T06:46:28;23.60;99.90
48836;DHT22;62581;47.342;7.908;2023-08-21T06:48:54;23.60;99.90
48836;DHT22;62581;47.342;7.908;2023-08-21T06:51:23;23.70;99.90
48836;DHT22;62581;47.342;7.908;2023-08-21T06:53:49;23.70;99.90
48836;DHT22;62581;47.342;7.908;2023-08-21T06:56:16;23.80;99.90
48836;DHT22;62581;47.342;7.908;2023-08-21T06:58:43;23.90;99.90
48836;DHT22;62581;47.342;7.908;2023-08-21T07:01:10;23.90;99.90
48836;DHT22;62581;47.342;7.908;2023-08-21T07:03:36;24.00;99.90
48836;DHT22;62581;47.342;7.908;2023-08-21T07:06:03;24.10;99.90
48836;DHT22;62581;47.342;7.908;2023-08-21T07:08:31;24.10;99.90
48836;DHT22;62581;47.342;7.908;2023-08-21T07:10:59;24.20;99.90
48836;DHT22;62581;47.342;7.908;2023-08-21T07:13:28;24.30;99.90
48836;DHT22;62581;47.342;7.908;2023-08-21T07:15:54;24.40;99.90
48836;DHT22;62581;47.342;7.908;2023-08-21T07:18:21;24.40;99.90
48836;DHT22;62581;47.342;7.908;2023-08-21T07:20:48;24.50;99.90
48836;DHT22;62581;47.342;7.908;2023-08-21T07:23:14;24.60;99.90
48836;DHT22;62581;47.342;7.908;2023-08-21T07:25:43;24.70;99.90
48836;DHT22;62581;47.342;7.908;2023-08-21T07:28:09;24.70;99.90
48836;DHT22;62581;47.342;7.908;2023-08-21T07:30:36;24.80;99.90
48836;DHT22;62581;47.342;7.908;2023-08-21T07:33:03;24.90;99.90
48836;DHT22;62581;47.342;7.908;2023-08-21T07:35:30;25.00;99.90
48836;DHT22;62581;47.342;7.908;2023-08-21T07:37:57;25.00;99.90
48836;DHT22;62581;47.342;7.908;2023-08-21T07:40:23;25.20;99.90
48836;DHT22;62581;47.342;7.908;2023-08-21T07:42:52;25.30;99.90
48836;DHT22;62581;47.342;7.908;2023-08-21T07:45:18;25.30;99.90
48836;DHT22;62581;47.342;7.908;2023-08-21T07:47:45;25.40;99.90
48836;DHT22;62581;47.342;7.908;2023-08-21T07:50:12;25.40;99.90
48836;DHT22;62581;47.342;7.908;2023-08-21T07:52:42;25.50;99.90
48836;DHT22;62581;47.342;7.908;2023-08-21T07:55:09;25.50;99.90
48836;DHT22;62581;47.342;7.908;2023-08-21T07:57:35;25.70;99.90
48836;DHT22;62581;47.342;7.908;2023-08-21T08:00:04;25.80;99.90
48836;DHT22;62581;47.342;7.908;2023-08-21T08:02:33;25.80;99.90
48836;DHT22;62581;47.342;7.908;2023-08-21T08:05:00;25.90;99.90
48836;DHT22;62581;47.342;7.908;2023-08-21T08:07:27;25.90;99.90
48836;DHT22;62581;47.342;7.908;2023-08-21T08:09:54;26.10;99.90
48836;DHT22;62581;47.342;7.908;2023-08-21T08:12:20;26.10;99.90
48836;DHT22;62581;47.342;7.908;2023-08-21T08:14:47;26.20;99.90
48836;DHT22;62581;47.342;7.908;2023-08-21T08:17:15;26.30;99.90
48836;DHT22;62581;47.342;7.908;2023-08-21T08:19:42;26.40;99.90
48836;DHT22;62581;47.342;7.908;2023-08-21T08:22:09;26.50;99.90
48836;DHT22;62581;47.342;7.908;2023-08-21T08:24:36;26.60;99.90
48836;DHT22;62581;47.342;7.908;2023-08-21T08:27:02;26.70;99.90
48836;DHT22;62581;47.342;7.908;2023-08-21T08:29:29;26.80;99.90
48836;DHT22;62581;47.342;7.908;2023-08-21T08:31:56;26.90;99.90
48836;DHT22;62581;47.342;7.908;2023-08-21T08:34:24;26.90;99.90
48836;DHT22;62581;47.342;7.908;2023-08-21T08:36:51;27.00;99.90
48836;DHT22;62581;47.342;7.908;2023-08-21T08:39:18;27.00;99.90
48836;DHT22;62581;47.342;7.908;2023-08-21T08:41:48;27.10;99.90
48836;DHT22;62581;47.342;7.908;2023-08-21T08:44:16;27.10;99.90
48836;DHT22;62581;47.342;7.908;2023-08-21T08:46:43;27.20;99.90
48836;DHT22;62581;47.342;7.908;2023-08-21T08:49:11;27.30;99.90
48836;DHT22;62581;47.342;7.908;2023-08-21T08:51:39;27.40;99.90
48836;DHT22;62581;47.342;7.908;2023-08-21T08:54:06;27.40;99.90
48836;DHT22;62581;47.342;7.908;2023-08-21T08:56:33;27.50;99.90
48836;DHT22;62581;47.342;7.908;2023-08-21T08:59:01;27.60;99.90
48836;DHT22;62581;47.342;7.908;2023-08-21T09:01:28;27.70;99.90
48836;DHT22;62581;47.342;7.908;2023-08-21T09:03:55;27.80;99.90
48836;DHT22;62581;47.342;7.908;2023-08-21T09:06:22;27.90;99.90
48836;DHT22;62581;47.342;7.908;2023-08-21T09:08:56;28.00;99.90
48836;DHT22;62581;47.342;7.908;2023-08-21T09:11:23;28.00;99.90
48836;DHT22;62581;47.342;7.908;2023-08-21T09:13:50;28.20;99.90
48836;DHT22;62581;47.342;7.908;2023-08-21T09:16:17;28.30;99.90
48836;DHT22;62581;47.342;7.908;2023-08-21T09:18:47;28.40;99.90
48836;DHT22;62581;47.342;7.908;2023-08-21T09:21:18;28.50;99.90
48836;DHT22;62581;47.342;7.908;2023-08-21T09:23:44;28.50;99.90
48836;DHT22;62581;47.342;7.908;2023-08-21T09:26:19;28.60;99.90
48836;DHT22;62581;47.342;7.908;2023-08-21T09:28:46;28.60;99.90
48836;DHT22;62581;47.342;7.908;2023-08-21T09:31:14;28.70;99.90
48836;DHT22;62581;47.342;7.908;2023-08-21T09:33:41;28.80;99.90
48836;DHT22;62581;47.342;7.908;2023-08-21T09:36:08;28.90;99.90
48836;DHT22;62581;47.342;7.908;2023-08-21T09:38:37;29.00;99.90
48836;DHT22;62581;47.342;7.908;2023-08-21T09:41:05;29.10;99.90
48836;DHT22;62581;47.342;7.908;2023-08-21T09:43:37;29.20;99.90
48836;DHT22;62581;47.342;7.908;2023-08-21T09:46:07;29.30;99.90
48836;DHT22;62581;47.342;7.908;2023-08-21T09:48:34;29.40;99.90
48836;DHT22;62581;47.342;7.908;2023-08-21T09:51:01;29.40;99.90
48836;DHT22;62581;47.342;7.908;2023-08-21T09:53:30;29.60;99.90
48836;DHT22;62581;47.342;7.908;2023-08-21T09:55:56;29.70;99.90
48836;DHT22;62581;47.342;7.908;2023-08-21T09:58:23;29.70;99.90
48836;DHT22;62581;47.342;7.908;2023-08-21T10:00:52;29.80;99.90
48836;DHT22;62581;47.342;7.908;2023-08-21T10:03:22;29.90;99.90
48836;DHT22;62581;47.342;7.908;2023-08-21T10:05:50;30.00;99.90
48836;DHT22;62581;47.342;7.908;2023-08-21T10:08:18;30.10;99.90
48836;DHT22;62581;47.342;7.908;2023-08-21T10:10:47;30.20;99.90
48836;DHT22;62581;47.342;7.908;2023-08-21T10:13:14;30.30;99.90
48836;DHT22;62581;47.342;7.908;2023-08-21T10:15:41;30.40;99.90
48836;DHT22;62581;47.342;7.908;2023-08-21T10:18:20;30.40;99.90
48836;DHT22;62581;47.342;7.908;2023-08-21T10:20:48;30.40;99.90
48836;DHT22;62581;47.342;7.908;2023-08-21T10:23:26;30.50;99.90
48836;DHT22;62581;47.342;7.908;2023-08-21T10:25:56;30.60;99.90
48836;DHT22;62581;47.342;7.908;2023-08-21T10:28:23;30.70;99.90
48836;DHT22;62581;47.342;7.908;2023-08-21T10:30:50;30.80;99.90
48836;DHT22;62581;47.342;7.908;2023-08-21T10:33:17;30.90;99.90
48836;DHT22;62581;47.342;7.908;2023-08-21T10:36:06;30.90;99.90
48836;DHT22;62581;47.342;7.908;2023-08-21T10:38:32;31.00;99.90
48836;DHT22;62581;47.342;7.908;2023-08-21T10:41:19;31.20;99.90
48836;DHT22;62581;47.342;7.908;2023-08-21T10:43:52;31.20;99.90
48836;DHT22;62581;47.342;7.908;2023-08-21T10:46:19;31.30;99.90
48836;DHT22;62581;47.342;7.908;2023-08-21T10:48:46;31.40;99.90
48836;DHT22;62581;47.342;7.908;2023-08-21T10:51:14;31.50;99.90
48836;DHT22;62581;47.342;7.908;2023-08-21T10:53:42;31.60;99.90
48836;DHT22;62581;47.342;7.908;2023-08-21T10:56:09;31.60;99.90
48836;DHT22;62581;47.342;7.908;2023-08-21T10:58:38;31.60;99.90
48836;DHT22;62581;47.342;7.908;2023-08-21T11:01:05;31.80;99.90
48836;DHT22;62581;47.342;7.908;2023-08-21T11:03:31;31.80;99.90
48836;DHT22;62581;47.342;7.908;2023-08-21T11:06:02;31.90;99.90
48836;DHT22;62581;47.342;7.908;2023-08-21T11:08:31;31.90;99.90
48836;DHT22;62581;47.342;7.908;2023-08-21T11:10:57;32.00;99.90
48836;DHT22;62581;47.342;7.908;2023-08-21T11:13:24;32.00;99.90
48836;DHT22;62581;47.342;7.908;2023-08-21T11:15:57;32.20;99.90
48836;DHT22;62581;47.342;7.908;2023-08-21T11:18:29;32.20;99.90
48836;DHT22;62581;47.342;7.908;2023-08-21T11:21:02;32.40;99.90
48836;DHT22;62581;47.342;7.908;2023-08-21T11:23:33;32.40;99.90
48836;DHT22;62581;47.342;7.908;2023-08-21T11:26:00;32.40;99.90
48836;DHT22;62581;47.342;7.908;2023-08-21T11:28:28;32.50;99.90
48836;DHT22;62581;47.342;7.908;2023-08-21T11:30:55;32.60;99.90
48836;DHT22;62581;47.342;7.908;2023-08-21T11:33:21;32.70;99.90
48836;DHT22;62581;47.342;7.908;2023-08-21T11:35:48;32.80;99.90
48836;DHT22;62581;47.342;7.908;2023-08-21T11:38:17;32.80;99.90
48836;DHT22;62581;47.342;7.908;2023-08-21T11:40:52;32.80;99.90
48836;DHT22;62581;47.342;7.908;2023-08-21T11:43:19;33.00;99.90
48836;DHT22;62581;47.342;7.908;2023-08-21T11:45:46;33.00;99.90
48836;DHT22;62581;47.342;7.908;2023-08-21T11:48:12;33.00;99.90
48836;DHT22;62581;47.342;7.908;2023-08-21T11:50:39;33.10;99.90
48836;DHT22;62581;47.342;7.908;2023-08-21T11:53:06;33.20;99.90
48836;DHT22;62581;47.342;7.908;2023-08-21T11:55:34;33.30;99.90
48836;DHT22;62581;47.342;7.908;2023-08-21T11:58:03;33.30;99.90
48836;DHT22;62581;47.342;7.908;2023-08-21T12:00:30;33.30;99.90
48836;DHT22;62581;47.342;7.908;2023-08-21T12:02:57;33.50;99.90
48836;DHT22;62581;47.342;7.908;2023-08-21T12:05:24;33.60;99.90
48836;DHT22;62581;47.342;7.908;2023-08-21T12:07:51;33.70;99.90
48836;DHT22;62581;47.342;7.908;2023-08-21T12:10:22;33.90;99.90
48836;DHT22;62581;47.342;7.908;2023-08-21T12:12:49;33.80;99.90
48836;DHT22;62581;47.342;7.908;2023-08-21T12:15:17;33.90;99.90
48836;DHT22;62581;47.342;7.908;2023-08-21T12:17:44;34.10;99.90
48836;DHT22;62581;47.342;7.908;2023-08-21T12:20:11;34.20;99.90
48836;DHT22;62581;47.342;7.908;2023-08-21T12:22:40;34.30;99.90
48836;DHT22;62581;47.342;7.908;2023-08-21T12:25:07;34.40;99.90
48836;DHT22;62581;47.342;7.908;2023-08-21T12:27:35;35.00;99.90
48836;DHT22;62581;47.342;7.908;2023-08-21T12:30:02;36.10;99.70
48836;DHT22;62581;47.342;7.908;2023-08-21T12:32:30;37.30;98.20
48836;DHT22;62581;47.342;7.908;2023-08-21T12:34:56;38.70;95.30
48836;DHT22;62581;47.342;7.908;2023-08-21T12:37:23;40.00;92.50
48836;DHT22;62581;47.342;7.908;2023-08-21T12:39:50;41.20;91.00
48836;DHT22;62581;47.342;7.908;2023-08-21T12:42:17;42.10;87.50
48836;DHT22;62581;47.342;7.908;2023-08-21T12:44:44;43.10;81.80
48836;DHT22;62581;47.342;7.908;2023-08-21T12:47:11;43.70;78.30
48836;DHT22;62581;47.342;7.908;2023-08-21T12:49:39;44.20;74.90
48836;DHT22;62581;47.342;7.908;2023-08-21T12:52:05;44.30;72.60
48836;DHT22;62581;47.342;7.908;2023-08-21T12:54:32;44.40;70.80
48836;DHT22;62581;47.342;7.908;2023-08-21T12:56:59;45.10;69.30
48836;DHT22;62581;47.342;7.908;2023-08-21T12:59:25;45.50;66.70
48836;DHT22;62581;47.342;7.908;2023-08-21T13:01:52;45.60;66.20
48836;DHT22;62581;47.342;7.908;2023-08-21T13:04:19;45.10;66.70
48836;DHT22;62581;47.342;7.908;2023-08-21T13:06:47;45.10;66.60
48836;DHT22;62581;47.342;7.908;2023-08-21T13:09:14;44.60;65.70
48836;DHT22;62581;47.342;7.908;2023-08-21T13:11:41;44.90;64.80
48836;DHT22;62581;47.342;7.908;2023-08-21T13:14:07;44.60;64.30
48836;DHT22;62581;47.342;7.908;2023-08-21T13:16:34;43.60;65.40
48836;DHT22;62581;47.342;7.908;2023-08-21T13:19:01;43.80;64.60
48836;DHT22;62581;47.342;7.908;2023-08-21T13:21:28;43.50;64.90
48836;DHT22;62581;47.342;7.908;2023-08-21T13:23:56;44.40;64.10
48836;DHT22;62581;47.342;7.908;2023-08-21T13:26:23;44.60;63.00
48836;DHT22;62581;47.342;7.908;2023-08-21T13:28:52;44.30;64.00
48836;DHT22;62581;47.342;7.908;2023-08-21T13:31:19;44.60;63.10
48836;DHT22;62581;47.342;7.908;2023-08-21T13:33:46;43.70;62.90
48836;DHT22;62581;47.342;7.908;2023-08-21T13:36:14;43.00;63.40
48836;DHT22;62581;47.342;7.908;2023-08-21T13:38:41;43.20;62.20
48836;DHT22;62581;47.342;7.908;2023-08-21T13:41:09;43.80;62.10
48836;DHT22;62581;47.342;7.908;2023-08-21T13:43:36;44.10;60.50
48836;DHT22;62581;47.342;7.908;2023-08-21T13:46:04;43.20;60.70
48836;DHT22;62581;47.342;7.908;2023-08-21T13:48:30;41.90;62.70
48836;DHT22;62581;47.342;7.908;2023-08-21T13:50:57;42.20;63.00
48836;DHT22;62581;47.342;7.908;2023-08-21T13:53:24;43.50;62.20
48836;DHT22;62581;47.342;7.908;2023-08-21T13:55:51;45.00;59.80
48836;DHT22;62581;47.342;7.908;2023-08-21T13:58:19;46.00;58.40
48836;DHT22;62581;47.342;7.908;2023-08-21T14:00:46;47.40;57.70
48836;DHT22;62581;47.342;7.908;2023-08-21T14:03:13;47.40;55.00
48836;DHT22;62581;47.342;7.908;2023-08-21T14:05:40;46.80;55.90
48836;DHT22;62581;47.342;7.908;2023-08-21T14:08:06;47.50;55.50
48836;DHT22;62581;47.342;7.908;2023-08-21T14:10:33;48.30;54.90
48836;DHT22;62581;47.342;7.908;2023-08-21T14:13:01;49.50;54.20
48836;DHT22;62581;47.342;7.908;2023-08-21T14:15:30;49.50;52.70
48836;DHT22;62581;47.342;7.908;2023-08-21T14:17:57;50.20;51.90
48836;DHT22;62581;47.342;7.908;2023-08-21T14:20:24;50.30;51.00
48836;DHT22;62581;47.342;7.908;2023-08-21T14:22:50;50.80;50.70
48836;DHT22;62581;47.342;7.908;2023-08-21T14:25:18;50.70;51.60
48836;DHT22;62581;47.342;7.908;2023-08-21T14:27:44;50.60;51.00
48836;DHT22;62581;47.342;7.908;2023-08-21T14:30:11;50.10;50.10
48836;DHT22;62581;47.342;7.908;2023-08-21T14:32:41;48.20;51.20
48836;DHT22;62581;47.342;7.908;2023-08-21T14:35:07;45.70;53.70
48836;DHT22;62581;47.342;7.908;2023-08-21T14:37:34;44.00;55.30
48836;DHT22;62581;47.342;7.908;2023-08-21T14:40:01;42.80;57.40
48836;DHT22;62581;47.342;7.908;2023-08-21T14:42:31;42.70;58.90
48836;DHT22;62581;47.342;7.908;2023-08-21T14:44:58;44.00;57.50
48836;DHT22;62581;47.342;7.908;2023-08-21T14:47:25;45.70;55.80
48836;DHT22;62581;47.342;7.908;2023-08-21T14:49:53;46.80;54.20
48836;DHT22;62581;47.342;7.908;2023-08-21T14:52:20;48.20;52.30
48836;DHT22;62581;47.342;7.908;2023-08-21T14:54:47;48.40;51.60
48836;DHT22;62581;47.342;7.908;2023-08-21T14:57:14;49.30;51.40
48836;DHT22;62581;47.342;7.908;2023-08-21T14:59:41;46.20;52.70
48836;DHT22;62581;47.342;7.908;2023-08-21T15:02:08;44.90;54.50
48836;DHT22;62581;47.342;7.908;2023-08-21T15:04:34;45.10;55.20
48836;DHT22;62581;47.342;7.908;2023-08-21T15:07:03;46.50;54.30
48836;DHT22;62581;47.342;7.908;2023-08-21T15:09:30;47.20;52.60
48836;DHT22;62581;47.342;7.908;2023-08-21T15:11:57;47.80;52.80
48836;DHT22;62581;47.342;7.908;2023-08-21T15:14:24;49.10;51.60
48836;DHT22;62581;47.342;7.908;2023-08-21T15:16:51;49.90;50.40
48836;DHT22;62581;47.342;7.908;2023-08-21T15:19:17;50.10;50.30
48836;DHT22;62581;47.342;7.908;2023-08-21T15:21:44;50.50;49.80
48836;DHT22;62581;47.342;7.908;2023-08-21T15:24:12;50.70;48.50
48836;DHT22;62581;47.342;7.908;2023-08-21T15:26:39;51.10;48.70
48836;DHT22;62581;47.342;7.908;2023-08-21T15:29:06;51.10;48.70
48836;DHT22;62581;47.342;7.908;2023-08-21T15:31:32;51.80;48.50